createdAt,value
2019-05-18T00:00:14.186Z,100526.75
2019-05-18T00:02:44.827Z,100522.70
2019-05-18T00:05:15.513Z,100514.49
2019-05-18T00:07:46.118Z,100509.84
2019-05-18T00:10:17.541Z,100514.45
2019-05-18T00:12:48.122Z,100509.64
2019-05-18T00:15:18.795Z,100511.52
2019-05-18T00:17:49.487Z,100509.68
2019-05-18T00:20:20.049Z,100508.98
2019-05-18T00:22:50.818Z,100506.72
2019-05-18T00:25:21.422Z,100506.26
2019-05-18T00:27:52.015Z,100509.13
2019-05-18T00:30:22.694Z,100511.52
2019-05-18T00:32:53.248Z,100513.65
2019-05-18T00:35:25.211Z,100517.45
2019-05-18T00:37:55.801Z,100513.83
2019-05-18T00:40:26.386Z,100515.67
2019-05-18T00:42:56.965Z,100517.64
2019-05-18T00:45:27.560Z,100516.75
2019-05-18T00:47:58.218Z,100521.32
2019-05-18T00:50:28.889Z,100519.70
2019-05-18T00:52:59.466Z,100517.88
2019-05-18T00:55:30.046Z,100519.68
2019-05-18T00:58:00.731Z,100523.06
2019-05-18T01:00:31.511Z,100518.34
2019-05-18T01:03:02.315Z,100516.44
2019-05-18T01:05:32.906Z,100522.33
2019-05-18T01:08:03.487Z,100523.20
2019-05-18T01:10:34.268Z,100518.41
2019-05-18T01:13:04.969Z,100517.51
2019-05-18T01:15:35.660Z,100518.31
2019-05-18T01:18:07.117Z,100517.45
2019-05-18T01:20:37.757Z,100510.88
2019-05-18T01:23:08.617Z,100506.92
2019-05-18T01:25:39.180Z,100498.70
2019-05-18T01:28:10.021Z,100504.73
2019-05-18T01:30:40.599Z,100507.84
2019-05-18T01:33:11.185Z,100506.00
2019-05-18T01:35:41.801Z,100503.91
2019-05-18T01:38:12.413Z,100507.69
2019-05-18T01:40:43.075Z,100505.69
2019-05-18T01:43:14.463Z,100499.73
2019-05-18T01:45:45.315Z,100503.19
2019-05-18T01:48:15.889Z,100498.84
2019-05-18T01:50:46.615Z,100504.34
2019-05-18T01:53:17.194Z,100503.78
2019-05-18T01:55:47.773Z,100509.06
2019-05-18T01:58:18.367Z,100504.30
2019-05-18T02:00:48.947Z,100501.80
2019-05-18T02:03:19.542Z,100505.34
2019-05-18T02:05:50.125Z,100507.66
2019-05-18T02:08:20.715Z,100497.13
2019-05-18T02:10:51.332Z,100497.83
2019-05-18T02:13:21.941Z,100490.84
2019-05-18T02:15:52.519Z,100485.34
2019-05-18T02:18:29.159Z,100479.75
2019-05-18T02:20:55.381Z,100480.13
2019-05-18T02:23:25.973Z,100479.23
2019-05-18T02:25:56.632Z,100480.80
2019-05-18T02:28:27.215Z,100479.17
2019-05-18T02:30:57.817Z,100477.95
2019-05-18T02:33:28.503Z,100465.71
2019-05-18T02:35:59.097Z,100466.41
2019-05-18T02:38:29.667Z,100473.85
2019-05-18T02:41:00.378Z,100470.09
2019-05-18T02:43:30.957Z,100468.48
2019-05-18T02:46:01.538Z,100475.01
2019-05-18T02:48:47.555Z,100465.20
2019-05-18T02:51:04.381Z,100462.95
2019-05-18T02:53:34.973Z,100458.61
2019-05-18T02:56:05.623Z,100460.05
2019-05-18T02:58:36.203Z,100455.73
2019-05-18T03:01:06.909Z,100456.58
2019-05-18T03:03:37.568Z,100451.72
2019-05-18T03:06:08.408Z,100446.48
2019-05-18T03:08:39.180Z,100447.08
2019-05-18T03:11:09.856Z,100452.30
2019-05-18T03:13:40.579Z,100455.13
2019-05-18T03:16:11.265Z,100450.33
2019-05-18T03:18:42.181Z,100445.86
2019-05-18T03:21:12.849Z,100442.33
2019-05-18T03:23:43.511Z,100435.12
2019-05-18T03:26:14.093Z,100436.77
2019-05-18T03:28:44.979Z,100444.25
2019-05-18T03:31:15.564Z,100448.82
2019-05-18T03:33:46.117Z,100440.73
2019-05-18T03:36:16.782Z,100439.38
2019-05-18T03:38:47.577Z,100446.11
2019-05-18T03:41:18.156Z,100436.32
2019-05-18T03:43:48.742Z,100440.18
2019-05-18T03:46:23.330Z,100439.84
2019-05-18T03:48:51.775Z,100434.30
2019-05-18T03:51:22.363Z,100436.41
2019-05-18T03:53:53.041Z,100425.87
2019-05-18T03:56:23.636Z,100430.79
2019-05-18T03:58:54.248Z,100430.93
2019-05-18T04:01:24.934Z,100426.78
2019-05-18T04:03:55.640Z,100417.11
2019-05-18T04:06:26.423Z,100419.00
2019-05-18T04:08:57.241Z,100426.92
2019-05-18T04:11:27.920Z,100431.50
2019-05-18T04:13:58.618Z,100425.14
2019-05-18T04:16:30.446Z,100436.67
2019-05-18T04:19:01.082Z,100434.78
2019-05-18T04:21:31.850Z,100439.34
2019-05-18T04:24:03.765Z,100432.46
2019-05-18T04:26:34.584Z,100434.95
2019-05-18T04:29:05.930Z,100444.42
2019-05-18T04:31:36.690Z,100439.89
2019-05-18T04:34:07.396Z,100432.56
2019-05-18T04:36:38.459Z,100437.26
2019-05-18T04:39:09.100Z,100436.51
2019-05-18T04:41:39.875Z,100437.03
2019-05-18T04:44:10.617Z,100434.48
2019-05-18T04:46:41.472Z,100432.20
2019-05-18T04:49:12.153Z,100430.52
2019-05-18T04:51:42.945Z,100424.91
2019-05-18T04:54:13.686Z,100425.30
2019-05-18T04:56:44.256Z,100430.77
2019-05-18T04:59:15.304Z,100429.61
2019-05-18T05:01:46.269Z,100437.84
2019-05-18T05:04:16.962Z,100441.22
2019-05-18T05:06:47.706Z,100440.70
2019-05-18T05:09:18.425Z,100437.13
2019-05-18T05:11:49.224Z,100438.81
2019-05-18T05:14:20.086Z,100436.92
2019-05-18T05:16:52.460Z,100445.55
2019-05-18T05:19:23.292Z,100447.52
2019-05-18T05:21:54.080Z,100451.15
2019-05-18T05:24:25.965Z,100455.23
2019-05-18T05:26:56.540Z,100454.44
2019-05-18T05:29:27.121Z,100452.09
2019-05-18T05:31:57.800Z,100448.31
2019-05-18T05:34:28.473Z,100445.69
2019-05-18T05:36:59.083Z,100440.97
2019-05-18T05:39:29.671Z,100440.08
2019-05-18T05:42:00.249Z,100439.88
2019-05-18T05:44:31.918Z,100445.28
2019-05-18T05:47:02.550Z,100448.66
2019-05-18T05:49:33.122Z,100446.19
2019-05-18T05:52:03.702Z,100437.27
2019-05-18T05:54:35.304Z,100441.85
2019-05-18T05:57:05.896Z,100437.31
2019-05-18T05:59:36.515Z,100437.28
2019-05-18T06:02:07.093Z,100435.52
2019-05-18T06:04:37.682Z,100431.19
2019-05-18T06:07:09.338Z,100431.70
2019-05-18T06:09:39.900Z,100431.61
2019-05-18T06:12:10.489Z,100435.89
2019-05-18T06:14:42.068Z,100433.62
2019-05-18T06:17:12.683Z,100430.30
2019-05-18T06:19:43.256Z,100437.27
2019-05-18T06:22:13.836Z,100440.24
2019-05-18T06:24:44.429Z,100444.79
2019-05-18T06:27:15.122Z,100442.01
2019-05-18T06:29:45.894Z,100445.51
2019-05-18T06:32:16.477Z,100444.16
2019-05-18T06:34:47.081Z,100449.52
2019-05-18T06:37:18.395Z,100451.34
2019-05-18T06:39:50.309Z,100449.73
2019-05-18T06:42:20.963Z,100441.94
2019-05-18T06:44:51.670Z,100442.85
2019-05-18T06:47:22.278Z,100447.88
2019-05-18T06:49:52.908Z,100448.73
2019-05-18T06:52:23.792Z,100439.28
2019-05-18T06:54:55.916Z,100428.04
2019-05-18T06:57:27.284Z,100428.33
2019-05-18T06:59:58.567Z,100426.65
2019-05-18T07:02:29.147Z,100427.17
2019-05-18T07:04:59.715Z,100429.59
2019-05-18T07:07:30.410Z,100431.13
2019-05-18T07:10:01.034Z,100433.09
2019-05-18T07:12:31.790Z,100423.09
2019-05-18T07:15:02.449Z,100419.35
2019-05-18T07:17:36.366Z,100424.91
2019-05-18T07:20:07.300Z,100427.35
2019-05-18T07:22:37.910Z,100423.48
2019-05-18T07:25:09.652Z,100427.14
2019-05-18T07:27:40.318Z,100426.38
2019-05-18T07:30:11.603Z,100429.48
2019-05-18T07:32:42.525Z,100426.61
2019-05-18T07:35:13.655Z,100421.36
2019-05-18T07:37:44.378Z,100414.83
2019-05-18T07:40:15.034Z,100408.48
2019-05-18T07:42:45.638Z,100405.71
2019-05-18T07:45:17.255Z,100404.48
2019-05-18T07:47:47.938Z,100404.38
2019-05-18T07:50:18.669Z,100405.16
2019-05-18T07:52:49.259Z,100404.23
2019-05-18T07:55:19.874Z,100404.36
2019-05-18T07:57:50.465Z,100408.00
2019-05-18T08:00:21.185Z,100394.91
2019-05-18T08:02:51.770Z,100390.38
2019-05-18T08:05:22.364Z,100390.66
2019-05-18T08:07:52.951Z,100390.10
2019-05-18T08:10:37.877Z,100390.66
2019-05-18T08:13:08.615Z,100389.18
2019-05-18T08:15:39.531Z,100387.45
2019-05-18T08:18:10.316Z,100390.56
2019-05-18T08:20:40.880Z,100397.33
2019-05-18T08:23:11.544Z,100401.97
2019-05-18T08:25:42.143Z,100401.19
2019-05-18T08:28:12.749Z,100395.38
2019-05-18T08:30:43.358Z,100392.69
2019-05-18T08:33:13.940Z,100386.98
2019-05-18T08:35:44.543Z,100388.70
2019-05-18T08:38:15.252Z,100382.15
2019-05-18T08:40:45.856Z,100385.22
2019-05-18T08:43:16.486Z,100378.47
2019-05-18T08:45:47.257Z,100378.48
2019-05-18T08:48:17.994Z,100373.39
2019-05-18T08:50:48.615Z,100374.10
2019-05-18T08:53:19.295Z,100371.28
2019-05-18T08:55:50.100Z,100364.88
2019-05-18T08:58:20.768Z,100371.16
2019-05-18T09:00:51.416Z,100366.47
2019-05-18T09:03:22.076Z,100370.37
2019-05-18T09:05:52.668Z,100369.72
2019-05-18T09:08:23.349Z,100367.02
2019-05-18T09:10:54.049Z,100365.27
2019-05-18T09:13:24.884Z,100366.61
2019-05-18T09:15:55.593Z,100365.70
2019-05-18T09:18:26.278Z,100353.51
2019-05-18T09:20:56.870Z,100358.78
2019-05-18T09:23:28.698Z,100358.84
2019-05-18T09:25:59.378Z,100359.49
2019-05-18T09:28:30.379Z,100358.09
2019-05-18T09:31:00.943Z,100352.70
2019-05-18T09:33:31.708Z,100351.23
2019-05-18T09:36:03.180Z,100354.97
2019-05-18T09:38:35.224Z,100352.52
2019-05-18T09:41:05.803Z,100348.23
2019-05-18T09:43:36.406Z,100343.88
2019-05-18T09:46:06.986Z,100350.77
2019-05-18T09:48:37.755Z,100349.97
2019-05-18T09:51:08.348Z,100349.91
2019-05-18T09:53:50.654Z,100351.99
2019-05-18T09:56:11.323Z,100350.29
2019-05-18T09:58:41.906Z,100342.42
2019-05-18T10:01:12.540Z,100342.70
2019-05-18T10:03:43.205Z,100342.95
2019-05-18T10:06:13.840Z,100344.88
2019-05-18T10:08:44.546Z,100336.66
2019-05-18T10:11:15.173Z,100330.24
2019-05-18T10:13:45.872Z,100331.61
2019-05-18T10:16:17.437Z,100333.00
2019-05-18T10:18:48.036Z,100331.56
2019-05-18T10:21:18.622Z,100331.89
2019-05-18T10:23:49.452Z,100330.21
2019-05-18T10:26:20.193Z,100323.20
2019-05-18T10:28:51.065Z,100319.29
2019-05-18T10:31:21.649Z,100320.69
2019-05-18T10:33:52.214Z,100322.81
2019-05-18T10:36:22.811Z,100312.83
2019-05-18T10:38:53.538Z,100309.22
2019-05-18T10:41:24.137Z,100314.77
2019-05-18T10:43:54.869Z,100316.37
2019-05-18T10:46:25.448Z,100314.86
2019-05-18T10:48:56.050Z,100312.80
2019-05-18T10:51:26.693Z,100309.16
2019-05-18T10:53:57.317Z,100304.73
2019-05-18T10:56:31.118Z,100303.91
2019-05-18T10:59:00.262Z,100292.75
2019-05-18T11:01:30.926Z,100287.24
2019-05-18T11:04:01.727Z,100283.22
2019-05-18T11:06:32.464Z,100282.36
2019-05-18T11:09:04.256Z,100286.16
2019-05-18T11:11:35.325Z,100281.06
2019-05-18T11:14:06.450Z,100282.55
2019-05-18T11:16:38.301Z,100282.11
2019-05-18T11:19:08.968Z,100269.56
2019-05-18T11:21:39.544Z,100271.47
2019-05-18T11:24:10.142Z,100275.67
2019-05-18T11:26:40.728Z,100275.55
2019-05-18T11:29:11.322Z,100273.84
2019-05-18T11:31:41.880Z,100282.06
2019-05-18T11:34:12.483Z,100277.63
2019-05-18T11:36:43.059Z,100276.38
2019-05-18T11:39:13.718Z,100279.22
2019-05-18T11:41:44.314Z,100280.38
2019-05-18T11:44:14.885Z,100277.85
2019-05-18T11:46:45.467Z,100275.30
2019-05-18T11:49:16.173Z,100281.00
2019-05-18T11:51:46.856Z,100271.73
2019-05-18T11:54:17.544Z,100272.54
2019-05-18T11:56:48.130Z,100272.91
2019-05-18T11:59:18.697Z,100267.91
2019-05-18T12:01:49.314Z,100263.19
2019-05-18T12:04:19.915Z,100265.20
2019-05-18T12:06:50.492Z,100265.98
2019-05-18T12:09:21.071Z,100259.02
2019-05-18T12:11:51.672Z,100256.44
2019-05-18T12:14:22.344Z,100258.63
2019-05-18T12:16:52.963Z,100258.75
2019-05-18T12:19:23.591Z,100265.00
2019-05-18T12:21:54.224Z,100257.52
2019-05-18T12:24:24.780Z,100261.53
2019-05-18T12:26:55.719Z,100256.02
2019-05-18T12:29:26.270Z,100261.16
2019-05-18T12:31:56.961Z,100253.05
2019-05-18T12:34:27.538Z,100251.55
2019-05-18T12:36:58.101Z,100257.48
2019-05-18T12:39:28.882Z,100259.58
2019-05-18T12:41:59.453Z,100255.36
2019-05-18T12:44:30.040Z,100248.03
2019-05-18T12:47:00.608Z,100243.05
2019-05-18T12:49:31.506Z,100238.55
2019-05-18T12:52:02.500Z,100241.92
2019-05-18T12:54:45.535Z,100245.82
2019-05-18T12:57:05.651Z,100246.73
2019-05-18T12:59:36.530Z,100238.39
2019-05-18T13:02:07.502Z,100237.86
2019-05-18T13:04:41.594Z,100233.22
2019-05-18T13:07:11.171Z,100234.45
2019-05-18T13:09:42.290Z,100232.07
2019-05-18T13:12:13.607Z,100229.51
2019-05-18T13:14:44.417Z,100232.96
2019-05-18T13:17:15.209Z,100237.45
2019-05-18T13:19:46.966Z,100230.25
2019-05-18T13:22:18.179Z,100223.00
2019-05-18T13:24:52.028Z,100227.17
2019-05-18T13:27:21.096Z,100222.95
2019-05-18T13:29:51.771Z,100221.95
2019-05-18T13:32:22.399Z,100222.94
2019-05-18T13:34:53.202Z,100219.82
2019-05-18T13:37:23.997Z,100219.14
2019-05-18T13:39:56.502Z,100215.55
2019-05-18T13:42:27.772Z,100215.69
2019-05-18T13:44:59.275Z,100216.55
2019-05-18T13:47:30.463Z,100212.52
2019-05-18T13:50:01.059Z,100205.75
2019-05-18T13:52:32.352Z,100206.19
2019-05-18T13:55:05.160Z,100205.63
2019-05-18T13:57:37.026Z,100205.64
2019-05-18T14:00:09.904Z,100204.40
2019-05-18T14:02:40.502Z,100206.84
2019-05-18T14:05:13.055Z,100206.21
2019-05-18T14:07:43.684Z,100209.89
2019-05-18T14:10:15.407Z,100208.00
2019-05-18T14:12:46.188Z,100208.94
2019-05-18T14:15:17.412Z,100200.61
2019-05-18T14:17:48.347Z,100198.56
2019-05-18T14:20:19.109Z,100198.20
2019-05-18T14:22:49.692Z,100199.59
2019-05-18T14:25:20.507Z,100199.38
2019-05-18T14:27:51.081Z,100200.16
2019-05-18T14:30:22.320Z,100196.13
2019-05-18T14:32:52.994Z,100204.09
2019-05-18T14:35:23.577Z,100203.52
2019-05-18T14:37:54.410Z,100200.34
2019-05-18T14:40:25.090Z,100200.52
2019-05-18T14:42:55.662Z,100192.58
2019-05-18T14:45:26.263Z,100202.77
2019-05-18T14:47:56.835Z,100193.81
2019-05-18T14:50:27.409Z,100194.37
2019-05-18T14:52:58.002Z,100202.02
2019-05-18T14:55:33.799Z,100194.45
2019-05-18T14:58:00.933Z,100195.47
2019-05-18T15:00:31.509Z,100191.73
2019-05-18T15:03:02.080Z,100184.55
2019-05-18T15:05:32.656Z,100182.70
2019-05-18T15:08:03.215Z,100181.25
2019-05-18T15:10:38.197Z,100189.60
2019-05-18T15:13:08.855Z,100187.38
2019-05-18T15:15:39.508Z,100188.53
2019-05-18T15:18:10.072Z,100191.10
2019-05-18T15:20:40.814Z,100192.20
2019-05-18T15:23:11.386Z,100183.33
2019-05-18T15:25:50.071Z,100190.03
2019-05-18T15:28:14.356Z,100188.01
2019-05-18T15:30:44.954Z,100184.27
2019-05-18T15:33:15.712Z,100187.27
2019-05-18T15:35:46.307Z,100191.49
2019-05-18T15:38:16.993Z,100186.23
2019-05-18T15:40:47.577Z,100187.37
2019-05-18T15:43:18.317Z,100178.06
2019-05-18T15:45:48.923Z,100187.62
2019-05-18T15:48:19.647Z,100173.93
2019-05-18T15:50:50.983Z,100186.69
2019-05-18T15:53:21.568Z,100174.00
2019-05-18T15:56:04.879Z,100178.59
2019-05-18T15:58:24.415Z,100169.89
2019-05-18T16:00:55.161Z,100173.50
2019-05-18T16:03:25.742Z,100167.16
2019-05-18T16:05:56.902Z,100166.22
2019-05-18T16:08:27.480Z,100161.25
2019-05-18T16:10:58.062Z,100163.27
2019-05-18T16:13:28.794Z,100156.23
2019-05-18T16:15:59.451Z,100158.70
2019-05-18T16:18:30.290Z,100154.63
2019-05-18T16:21:00.843Z,100157.65
2019-05-18T16:23:32.538Z,100150.31
2019-05-18T16:26:03.134Z,100160.47
2019-05-18T16:28:33.726Z,100159.72
2019-05-18T16:31:04.479Z,100156.23
2019-05-18T16:33:35.409Z,100157.23
2019-05-18T16:36:06.144Z,100151.02
2019-05-18T16:38:37.706Z,100154.38
2019-05-18T16:41:08.386Z,100154.34
2019-05-18T16:43:38.985Z,100145.45
2019-05-18T16:46:09.644Z,100147.99
2019-05-18T16:48:40.356Z,100148.52
2019-05-18T16:51:11.441Z,100152.25
2019-05-18T16:53:42.003Z,100153.20
2019-05-18T16:56:12.731Z,100148.01
2019-05-18T16:58:43.289Z,100145.75
2019-05-18T17:01:13.870Z,100149.27
2019-05-18T17:03:44.447Z,100154.55
2019-05-18T17:06:16.490Z,100151.19
2019-05-18T17:08:47.376Z,100148.87
2019-05-18T17:11:17.941Z,100149.37
2019-05-18T17:13:48.517Z,100151.84
2019-05-18T17:16:19.125Z,100159.72
2019-05-18T17:18:49.704Z,100157.20
2019-05-18T17:21:20.255Z,100167.38
2019-05-18T17:23:53.604Z,100165.80
2019-05-18T17:26:23.787Z,100162.89
2019-05-18T17:28:54.550Z,100162.89
2019-05-18T17:31:25.188Z,100162.70
2019-05-18T17:33:55.889Z,100166.64
2019-05-18T17:36:26.500Z,100164.57
2019-05-18T17:38:57.141Z,100167.62
2019-05-18T17:41:27.734Z,100171.48
2019-05-18T17:43:58.905Z,100171.38
2019-05-18T17:46:29.648Z,100177.75
2019-05-18T17:49:00.338Z,100176.41
2019-05-18T17:51:31.055Z,100178.80
2019-05-18T17:54:02.375Z,100178.42
2019-05-18T17:56:33.302Z,100181.43
2019-05-18T17:59:04.457Z,100188.34
2019-05-18T18:01:35.384Z,100185.93
2019-05-18T18:04:06.282Z,100181.86
2019-05-18T18:06:37.189Z,100183.78
2019-05-18T18:09:08.933Z,100190.77
2019-05-18T18:11:39.880Z,100186.03
2019-05-18T18:14:10.850Z,100187.77
2019-05-18T18:16:41.764Z,100191.12
2019-05-18T18:19:15.818Z,100189.81
2019-05-18T18:21:46.858Z,100194.25
2019-05-18T18:24:17.817Z,100185.38
2019-05-18T18:26:48.631Z,100205.17
2019-05-18T18:29:20.351Z,100194.91
2019-05-18T18:31:51.001Z,100195.45
2019-05-18T18:34:21.764Z,100186.81
2019-05-18T18:36:52.468Z,100179.73
2019-05-18T18:39:23.109Z,100175.00
2019-05-18T18:41:53.703Z,100168.53
2019-05-18T18:44:25.892Z,100155.72
2019-05-18T18:46:56.517Z,100159.55
2019-05-18T18:49:27.205Z,100148.61
2019-05-18T18:51:57.820Z,100148.61
2019-05-18T18:54:28.469Z,100161.08
2019-05-18T18:56:59.047Z,100160.05
2019-05-18T18:59:29.626Z,100160.13
2019-05-18T19:02:00.757Z,100164.02
2019-05-18T19:04:31.831Z,100160.20
2019-05-18T19:07:02.633Z,100183.22
2019-05-18T19:09:33.199Z,100165.44
2019-05-18T19:12:03.944Z,100165.44
2019-05-18T19:14:34.783Z,100171.48
2019-05-18T19:17:07.250Z,100176.52
2019-05-18T19:19:40.120Z,100169.61
2019-05-18T19:22:11.466Z,100179.48
2019-05-18T19:24:42.032Z,100185.30
2019-05-18T19:27:12.630Z,100189.25
2019-05-18T19:29:43.383Z,100195.64
2019-05-18T19:32:14.010Z,100197.11
2019-05-18T19:34:44.714Z,100199.47
2019-05-18T19:37:15.584Z,100195.91
2019-05-18T19:39:47.677Z,100198.70
2019-05-18T19:42:18.477Z,100201.66
2019-05-18T19:44:49.877Z,100203.08
2019-05-18T19:47:21.178Z,100203.08
2019-05-18T19:49:52.528Z,100205.61
2019-05-18T19:52:23.385Z,100198.33
2019-05-18T19:54:54.017Z,100200.60
2019-05-18T19:57:24.736Z,100198.86
2019-05-18T19:59:56.862Z,100196.96
2019-05-18T20:02:27.466Z,100206.50
2019-05-18T20:05:07.486Z,100209.05
2019-05-18T20:07:31.767Z,100206.77
2019-05-18T20:10:05.608Z,100209.72
2019-05-18T20:12:36.280Z,100213.10
2019-05-18T20:15:09.481Z,100209.73
2019-05-18T20:17:40.991Z,100206.47
2019-05-18T20:20:14.631Z,100209.22
2019-05-18T20:22:45.306Z,100207.74
2019-05-18T20:25:16.145Z,100211.43
2019-05-18T20:27:46.813Z,100213.12
2019-05-18T20:30:18.218Z,100209.75
2019-05-18T20:32:49.047Z,100200.89
2019-05-18T20:35:19.765Z,100203.11
2019-05-18T20:37:50.376Z,100196.36
2019-05-18T20:40:21.057Z,100192.45
2019-05-18T20:42:53.357Z,100195.30
2019-05-18T20:45:24.177Z,100202.28
2019-05-18T20:47:54.759Z,100194.55
2019-05-18T20:50:25.368Z,100193.28
2019-05-18T20:52:55.965Z,100184.62
2019-05-18T20:55:26.551Z,100189.87
2019-05-18T20:57:57.211Z,100193.12
2019-05-18T21:00:28.691Z,100188.28
2019-05-18T21:02:59.448Z,100181.45
2019-05-18T21:05:30.753Z,100182.40
2019-05-18T21:08:01.869Z,100185.89
2019-05-18T21:10:36.274Z,100189.70
2019-05-18T21:13:06.944Z,100190.44
2019-05-18T21:15:37.536Z,100193.06
2019-05-18T21:18:08.241Z,100192.19
2019-05-18T21:20:38.867Z,100194.72
2019-05-18T21:23:09.487Z,100190.72
2019-05-18T21:25:40.093Z,100195.95
2019-05-18T21:28:10.703Z,100191.54
2019-05-18T21:30:41.299Z,100190.49
2019-05-18T21:33:11.890Z,100193.73
2019-05-18T21:35:42.465Z,100196.05
2019-05-18T21:38:13.040Z,100199.47
2019-05-18T21:40:43.628Z,100202.67
2019-05-18T21:43:14.260Z,100201.16
2019-05-18T21:45:44.839Z,100204.94
2019-05-18T21:48:15.452Z,100197.66
2019-05-18T21:50:46.016Z,100201.69
2019-05-18T21:53:18.028Z,100200.23
2019-05-18T21:55:48.627Z,100200.14
2019-05-18T21:58:19.226Z,100198.42
2019-05-18T22:00:50.608Z,100199.67
2019-05-18T22:03:21.205Z,100200.41
2019-05-18T22:05:53.215Z,100192.19
2019-05-18T22:08:23.817Z,100195.34
2019-05-18T22:10:54.428Z,100190.48
2019-05-18T22:13:25.071Z,100195.02
2019-05-18T22:15:55.602Z,100204.40
2019-05-18T22:18:26.184Z,100202.30
2019-05-18T22:20:56.778Z,100198.77
2019-05-18T22:23:27.361Z,100203.19
2019-05-18T22:25:58.045Z,100203.84
2019-05-18T22:28:28.652Z,100201.83
2019-05-18T22:30:59.247Z,100190.84
2019-05-18T22:33:29.862Z,100190.13
2019-05-18T22:36:00.433Z,100190.97
2019-05-18T22:38:31.024Z,100190.61
2019-05-18T22:41:01.621Z,100191.90
2019-05-18T22:43:32.197Z,100185.50
2019-05-18T22:46:02.925Z,100182.48
2019-05-18T22:48:41.277Z,100183.53
2019-05-18T22:51:06.657Z,100177.30
2019-05-18T22:53:37.321Z,100181.59
2019-05-18T22:56:07.931Z,100178.02
2019-05-18T22:58:38.514Z,100184.37
2019-05-18T23:01:09.332Z,100176.65
2019-05-18T23:03:40.115Z,100177.73
2019-05-18T23:06:10.875Z,100172.15
2019-05-18T23:08:41.691Z,100170.46
2019-05-18T23:11:12.524Z,100177.52
2019-05-18T23:13:43.286Z,100169.27
2019-05-18T23:16:13.963Z,100170.69
2019-05-18T23:18:56.349Z,100167.38
2019-05-18T23:21:20.168Z,100173.58
2019-05-18T23:23:50.870Z,100159.95
2019-05-18T23:26:21.667Z,100162.12
2019-05-18T23:28:52.408Z,100153.03
2019-05-18T23:31:22.989Z,100151.54
2019-05-18T23:33:53.791Z,100148.36
2019-05-18T23:36:24.487Z,100147.59
2019-05-18T23:38:55.184Z,100148.70
2019-05-18T23:41:25.758Z,100151.23
2019-05-18T23:43:56.470Z,100150.64
2019-05-18T23:46:27.056Z,100141.93
2019-05-18T23:49:10.018Z,100141.68
2019-05-18T23:51:30.088Z,100147.00
2019-05-18T23:54:00.656Z,100143.80
2019-05-18T23:56:31.327Z,100144.02
2019-05-18T23:59:01.971Z,100138.31
